createdAt,value
2023-03-02T00:01:10.844Z,2.36
2023-03-02T00:06:14.129Z,2.37
2023-03-02T00:11:17.648Z,2.37
2023-03-02T00:16:20.901Z,2.37
2023-03-02T00:21:24.881Z,2.36
2023-03-02T00:26:28.198Z,2.36
2023-03-02T00:31:31.677Z,2.35
2023-03-02T00:36:35.014Z,2.35
2023-03-02T00:41:38.118Z,2.32
2023-03-02T00:46:41.270Z,2.31
2023-03-02T00:51:44.435Z,2.29
2023-03-02T00:56:47.646Z,2.29
2023-03-02T01:01:58.310Z,2.27
2023-03-02T01:07:14.130Z,2.25
2023-03-02T01:12:17.441Z,2.23
2023-03-02T01:17:22.389Z,2.21
2023-03-02T01:22:25.477Z,2.21
2023-03-02T01:27:28.841Z,2.20
2023-03-02T01:32:32.275Z,2.19
2023-03-02T01:37:35.330Z,2.15
2023-03-02T01:42:41.117Z,2.08
2023-03-02T01:47:44.404Z,1.97
2023-03-02T01:52:48.019Z,1.84
2023-03-02T01:57:52.459Z,1.68
2023-03-02T02:03:09.241Z,1.48
2023-03-02T02:08:12.592Z,1.28
2023-03-02T02:13:15.503Z,1.16
2023-03-02T02:18:18.907Z,1.07
2023-03-02T02:23:45.670Z,0.97
2023-03-02T02:29:23.793Z,0.84
2023-03-02T02:34:33.013Z,0.70
2023-03-02T02:39:41.882Z,0.55
2023-03-02T02:44:44.994Z,0.38
2023-03-02T02:49:50.556Z,0.23
2023-03-02T02:54:56.420Z,0.11
2023-03-02T03:00:00.772Z,0.02
2023-03-02T03:05:04.616Z,-0.05
2023-03-02T03:10:40.352Z,-0.10
2023-03-02T03:15:44.271Z,-0.16
2023-03-02T03:20:47.490Z,-0.19
2023-03-02T03:25:50.690Z,-0.22
2023-03-02T03:30:53.706Z,-0.27
2023-03-02T03:35:57.127Z,-0.34
2023-03-02T03:41:00.096Z,-0.41
2023-03-02T03:46:03.476Z,-0.44
2023-03-02T03:51:07.127Z,-0.39
2023-03-02T03:56:10.950Z,-0.31
2023-03-02T04:01:14.090Z,-0.24
2023-03-02T04:06:19.313Z,-0.24
2023-03-02T04:11:22.616Z,-0.29
2023-03-02T04:16:26.438Z,-0.38
2023-03-02T04:21:30.056Z,-0.43
2023-03-02T04:26:34.032Z,-0.41
2023-03-02T04:31:37.808Z,-0.35
2023-03-02T04:36:41.837Z,-0.27
2023-03-02T04:41:45.568Z,-0.17
2023-03-02T04:46:49.498Z,-0.05
2023-03-02T04:51:52.801Z,0.08
2023-03-02T04:56:56.012Z,0.20
2023-03-02T05:02:01.008Z,0.26
2023-03-02T05:07:04.166Z,0.30
2023-03-02T05:12:07.883Z,0.31
2023-03-02T05:17:11.193Z,0.29
2023-03-02T05:22:14.603Z,0.28
2023-03-02T05:27:17.747Z,0.32
2023-03-02T05:32:21.254Z,0.38
2023-03-02T05:37:24.841Z,0.45
2023-03-02T05:42:27.856Z,0.51
2023-03-02T05:47:30.952Z,0.58
2023-03-02T05:52:34.054Z,0.66
2023-03-02T05:57:37.467Z,0.74
2023-03-02T06:02:41.540Z,0.80
2023-03-02T06:07:45.931Z,0.87
2023-03-02T06:12:49.570Z,0.93
2023-03-02T06:17:53.063Z,1.00
2023-03-02T06:22:56.678Z,1.06
2023-03-02T06:27:59.792Z,1.13
2023-03-02T06:33:03.412Z,1.21
2023-03-02T06:38:07.433Z,1.33
2023-03-02T06:43:11.558Z,1.44
2023-03-02T06:48:16.446Z,1.54
2023-03-02T06:53:23.707Z,1.63
2023-03-02T06:58:27.119Z,1.69
2023-03-02T07:03:30.259Z,1.76
2023-03-02T07:08:34.671Z,1.86
2023-03-02T07:13:39.555Z,1.96
2023-03-02T07:18:43.737Z,2.05
2023-03-02T07:23:47.057Z,2.20
2023-03-02T07:28:50.766Z,2.33
2023-03-02T07:33:54.734Z,2.39
2023-03-02T07:38:57.837Z,2.45
2023-03-02T07:44:01.211Z,2.56
2023-03-02T07:49:04.933Z,2.68
2023-03-02T07:54:08.342Z,2.79
2023-03-02T07:59:13.068Z,2.92
2023-03-02T08:04:16.090Z,3.00
2023-03-02T08:09:19.404Z,3.05
2023-03-02T08:14:23.322Z,3.11
2023-03-02T08:19:26.738Z,3.17
2023-03-02T08:24:30.561Z,3.21
2023-03-02T08:29:34.281Z,3.20
2023-03-02T08:34:38.050Z,3.20
2023-03-02T08:39:41.313Z,3.22
2023-03-02T08:44:44.619Z,3.28
2023-03-02T08:49:48.581Z,3.39
2023-03-02T08:54:51.767Z,3.54
2023-03-02T08:59:55.570Z,3.74
2023-03-02T09:04:59.124Z,3.86
2023-03-02T09:10:04.284Z,3.98
2023-03-02T09:15:08.878Z,4.30
2023-03-02T09:20:13.670Z,4.90
2023-03-02T09:25:19.255Z,5.69
2023-03-02T09:30:23.828Z,6.22
2023-03-02T09:35:27.552Z,6.73
2023-03-02T09:40:34.294Z,7.18
2023-03-02T09:45:55.812Z,7.89
2023-03-02T09:51:14.344Z,11.23
2023-03-02T09:56:19.771Z,15.01
2023-03-02T10:01:37.244Z,17.89
2023-03-02T10:06:41.074Z,20.90
2023-03-02T10:12:08.956Z,23.42
2023-03-02T10:17:31.522Z,24.78
2023-03-02T10:22:47.315Z,24.63
2023-03-02T10:27:57.219Z,20.34
2023-03-02T10:33:09.914Z,16.60
2023-03-02T10:38:17.317Z,14.00
2023-03-02T10:43:33.164Z,12.31
2023-03-02T10:48:49.939Z,10.98
2023-03-02T10:54:03.393Z,9.97
2023-03-02T10:59:26.467Z,9.21
2023-03-02T11:04:31.025Z,8.62
2023-03-02T11:09:34.221Z,8.29
2023-03-02T11:14:38.706Z,8.09
2023-03-02T11:19:43.201Z,7.97
2023-03-02T11:24:53.848Z,7.84
2023-03-02T11:29:59.132Z,7.76
2023-03-02T11:35:32.266Z,7.74
2023-03-02T11:40:47.244Z,7.67
2023-03-02T11:46:01.796Z,7.60
2023-03-02T11:51:39.083Z,7.57
2023-03-02T11:56:47.122Z,7.54
2023-03-02T12:01:53.633Z,7.51
2023-03-02T12:06:57.225Z,7.41
2023-03-02T12:12:26.447Z,7.30
2023-03-02T12:17:30.883Z,7.28
2023-03-02T12:22:35.367Z,7.30
2023-03-02T12:27:42.185Z,7.32
2023-03-02T12:32:58.828Z,7.35
2023-03-02T12:38:25.322Z,7.37
2023-03-02T12:43:34.726Z,7.41
2023-03-02T12:48:49.189Z,7.48
2023-03-02T12:54:06.762Z,7.54
2023-03-02T12:59:25.853Z,7.60
2023-03-02T13:04:29.588Z,7.66
2023-03-02T13:09:32.676Z,7.71
2023-03-02T13:14:35.767Z,7.70
2023-03-02T13:19:38.768Z,7.71
2023-03-02T13:24:49.773Z,7.74
2023-03-02T13:29:55.756Z,7.75
2023-03-02T13:35:03.682Z,7.74
2023-03-02T13:40:31.139Z,7.75
2023-03-02T13:45:37.062Z,7.78
2023-03-02T13:50:40.406Z,7.78
2023-03-02T13:55:43.512Z,7.70
2023-03-02T14:00:47.739Z,7.60
2023-03-02T14:05:52.896Z,7.53
2023-03-02T14:11:01.221Z,7.52
2023-03-02T14:16:04.862Z,7.57
2023-03-02T14:21:23.240Z,7.58
2023-03-02T14:26:35.419Z,7.58
2023-03-02T14:31:38.626Z,7.55
2023-03-02T14:36:44.905Z,7.50
2023-03-02T14:41:53.899Z,7.46
2023-03-02T14:46:58.860Z,7.40
2023-03-02T14:52:25.251Z,7.33
2023-03-02T14:57:30.817Z,7.21
2023-03-02T15:02:34.222Z,7.07
2023-03-02T15:07:39.073Z,6.94
2023-03-02T15:12:42.403Z,6.80
2023-03-02T15:17:45.721Z,6.66
2023-03-02T15:22:48.929Z,6.50
2023-03-02T15:27:54.516Z,6.33
2023-03-02T15:32:59.931Z,6.17
2023-03-02T15:38:04.900Z,6.00
2023-03-02T15:43:08.290Z,5.82
2023-03-02T15:48:13.629Z,5.64
2023-03-02T15:53:17.279Z,5.44
2023-03-02T15:58:22.413Z,5.23
2023-03-02T16:03:25.933Z,5.03
2023-03-02T16:08:29.358Z,4.82
2023-03-02T16:13:32.658Z,4.61
2023-03-02T16:18:35.757Z,4.38
2023-03-02T16:23:39.582Z,4.14
2023-03-02T16:28:43.110Z,3.89
2023-03-02T16:33:47.646Z,3.65
2023-03-02T16:38:50.760Z,3.43
2023-03-02T16:43:55.594Z,3.21
2023-03-02T16:49:01.356Z,2.98
2023-03-02T16:54:05.093Z,2.74
2023-03-02T16:59:08.281Z,2.54
2023-03-02T17:04:11.829Z,2.33
2023-03-02T17:09:15.214Z,2.14
2023-03-02T17:14:19.765Z,1.94
2023-03-02T17:19:24.462Z,1.72
2023-03-02T17:24:28.983Z,1.51
2023-03-02T17:29:32.258Z,1.33
2023-03-02T17:34:35.548Z,1.16
2023-03-02T17:39:39.586Z,1.00
2023-03-02T17:44:44.115Z,0.86
2023-03-02T17:49:47.936Z,0.71
2023-03-02T17:54:53.978Z,0.57
2023-03-02T17:59:58.061Z,0.42
2023-03-02T18:05:02.492Z,0.29
2023-03-02T18:10:15.419Z,0.17
2023-03-02T18:15:22.312Z,0.05
2023-03-02T18:20:26.442Z,-0.05
2023-03-02T18:25:31.526Z,-0.14
2023-03-02T18:30:40.100Z,-0.22
2023-03-02T18:35:44.052Z,-0.29
2023-03-02T18:40:48.833Z,-0.37
2023-03-02T18:45:53.695Z,-0.45
2023-03-02T18:50:57.465Z,-0.53
2023-03-02T18:56:02.042Z,-0.61
2023-03-02T19:01:06.009Z,-0.67
2023-03-02T19:06:10.067Z,-0.74
2023-03-02T19:11:17.715Z,-0.82
2023-03-02T19:16:21.686Z,-0.90
2023-03-02T19:21:27.588Z,-0.96
2023-03-02T19:26:31.283Z,-1.01
2023-03-02T19:31:41.501Z,-1.06
2023-03-02T19:36:45.788Z,-1.10
2023-03-02T19:41:49.196Z,-1.13
2023-03-02T19:46:52.917Z,-1.16
2023-03-02T19:51:56.946Z,-1.19
2023-03-02T19:57:00.458Z,-1.23
2023-03-02T20:02:03.594Z,-1.26
2023-03-02T20:07:06.869Z,-1.28
2023-03-02T20:12:11.412Z,-1.29
2023-03-02T20:17:16.158Z,-1.29
2023-03-02T20:22:19.568Z,-1.30
2023-03-02T20:27:22.985Z,-1.30
2023-03-02T20:32:27.907Z,-1.32
2023-03-02T20:37:31.957Z,-1.36
2023-03-02T20:42:36.497Z,-1.40
2023-03-02T20:47:39.810Z,-1.44
2023-03-02T20:52:43.845Z,-1.50
2023-03-02T20:57:48.883Z,-1.56
2023-03-02T21:02:53.319Z,-1.62
2023-03-02T21:07:57.005Z,-1.67
2023-03-02T21:13:00.458Z,-1.72
2023-03-02T21:18:07.460Z,-1.75
2023-03-02T21:23:13.425Z,-1.79
2023-03-02T21:28:16.533Z,-1.83
2023-03-02T21:33:19.943Z,-1.88
2023-03-02T21:38:23.564Z,-1.94
2023-03-02T21:43:26.868Z,-2.01
2023-03-02T21:48:29.774Z,-2.07
2023-03-02T21:53:33.496Z,-2.13
2023-03-02T21:58:36.706Z,-2.20
2023-03-02T22:03:41.209Z,-2.22
2023-03-02T22:08:44.460Z,-2.27
2023-03-02T22:13:50.183Z,-2.32
2023-03-02T22:18:57.272Z,-2.37
2023-03-02T22:24:12.998Z,-2.41
2023-03-02T22:29:22.268Z,-2.48
2023-03-02T22:34:29.877Z,-2.54
2023-03-02T22:39:33.917Z,-2.59
2023-03-02T22:44:37.027Z,-2.64
2023-03-02T22:49:40.320Z,-2.68
2023-03-02T22:54:45.789Z,-2.71
2023-03-02T22:59:48.889Z,-2.76
2023-03-02T23:04:52.090Z,-2.80
2023-03-02T23:09:55.317Z,-2.85
2023-03-02T23:14:59.546Z,-2.87
2023-03-02T23:20:06.638Z,-2.89
2023-03-02T23:25:10.770Z,-2.90
2023-03-02T23:30:18.081Z,-2.91
2023-03-02T23:35:21.287Z,-2.93
2023-03-02T23:40:25.715Z,-2.93
2023-03-02T23:45:29.035Z,-2.92
2023-03-02T23:50:32.134Z,-2.90
2023-03-02T23:55:36.072Z,-2.86
